createdAt,value
2022-08-10T00:02:19.274Z,1.40
2022-08-10T00:05:22.325Z,1.67
2022-08-10T00:08:26.088Z,1.45
2022-08-10T00:11:28.999Z,1.42
2022-08-10T00:14:33.189Z,1.27
2022-08-10T00:17:36.094Z,1.48
2022-08-10T00:20:39.031Z,1.65
2022-08-10T00:23:42.079Z,1.45
2022-08-10T00:27:49.919Z,1.52
2022-08-10T00:30:10.633Z,1.30
2022-08-10T00:33:13.434Z,1.33
2022-08-10T00:36:16.189Z,1.40
2022-08-10T00:39:18.910Z,1.48
2022-08-10T00:42:21.901Z,1.40
2022-08-10T00:45:25.983Z,1.45
2022-08-10T00:48:30.345Z,1.23
2022-08-10T00:51:43.226Z,1.50
2022-08-10T00:54:51.816Z,1.33
2022-08-10T00:57:54.807Z,1.30
2022-08-10T01:00:59.826Z,1.65
2022-08-10T01:04:40.070Z,1.33
2022-08-10T01:07:43.069Z,1.30
2022-08-10T01:10:56.562Z,1.30
2022-08-10T01:14:08.430Z,1.55
2022-08-10T01:17:15.309Z,1.42
2022-08-10T01:20:30.166Z,1.50
2022-08-10T01:24:06.590Z,1.40
2022-08-10T01:27:27.030Z,1.48
2022-08-10T01:30:34.611Z,1.15
2022-08-10T01:33:59.089Z,1.42
2022-08-10T01:37:09.132Z,1.52
2022-08-10T01:40:16.740Z,1.30
2022-08-10T01:43:20.880Z,1.30
2022-08-10T01:46:26.251Z,1.50
2022-08-10T01:49:30.040Z,1.35
2022-08-10T01:52:34.387Z,1.27
2022-08-10T01:55:39.222Z,1.40
2022-08-10T01:58:43.921Z,1.77
2022-08-10T02:01:51.383Z,1.33
2022-08-10T02:04:56.115Z,1.35
2022-08-10T02:08:01.787Z,1.48
2022-08-10T02:11:06.227Z,1.67
2022-08-10T02:14:11.914Z,1.60
2022-08-10T02:18:00.903Z,1.50
2022-08-10T02:20:47.802Z,1.60
2022-08-10T02:23:54.141Z,1.50
2022-08-10T02:27:05.749Z,1.50
2022-08-10T02:30:11.255Z,1.50
2022-08-10T02:33:18.293Z,1.65
2022-08-10T02:36:23.464Z,1.75
2022-08-10T02:39:27.226Z,1.77
2022-08-10T02:45:20.715Z,1.38
2022-08-10T02:46:04.529Z,1.65
2022-08-10T02:49:13.952Z,1.70
2022-08-10T02:52:20.605Z,1.67
2022-08-10T02:55:32.785Z,1.60
2022-08-10T02:58:40.933Z,1.40
2022-08-10T03:01:47.693Z,1.23
2022-08-10T03:04:58.070Z,1.55
2022-08-10T03:08:03.003Z,1.50
2022-08-10T03:11:07.796Z,1.50
2022-08-10T03:14:11.817Z,1.30
2022-08-10T03:17:17.922Z,1.48
2022-08-10T03:20:37.310Z,1.60
2022-08-10T03:23:42.573Z,1.50
2022-08-10T03:26:45.451Z,1.75
2022-08-10T03:30:28.626Z,1.75
2022-08-10T03:33:13.897Z,1.80
2022-08-10T03:36:42.227Z,1.58
2022-08-10T03:39:40.975Z,1.92
2022-08-10T03:42:45.679Z,1.60
2022-08-10T03:45:55.839Z,1.50
2022-08-10T03:49:03.238Z,1.65
2022-08-10T03:52:07.621Z,1.92
2022-08-10T03:55:10.822Z,1.67
2022-08-10T03:58:13.815Z,1.90
2022-08-10T04:01:17.669Z,1.92
2022-08-10T04:04:24.595Z,1.92
2022-08-10T04:07:29.516Z,1.85
2022-08-10T04:10:32.317Z,2.00
2022-08-10T04:13:35.108Z,1.98
2022-08-10T04:16:37.911Z,1.70
2022-08-10T04:19:45.917Z,2.20
2022-08-10T04:22:53.505Z,1.90
2022-08-10T04:25:57.193Z,1.90
2022-08-10T04:29:00.117Z,1.92
2022-08-10T04:32:05.918Z,2.17
2022-08-10T04:35:10.927Z,1.83
2022-08-10T04:38:16.648Z,2.30
2022-08-10T04:41:19.901Z,2.00
2022-08-10T04:44:22.572Z,1.73
2022-08-10T04:47:51.255Z,1.90
2022-08-10T04:50:55.548Z,1.60
2022-08-10T04:54:08.151Z,1.63
2022-08-10T04:57:12.869Z,2.20
2022-08-10T05:00:19.009Z,2.63
2022-08-10T05:03:23.027Z,2.00
2022-08-10T05:06:26.797Z,1.70
2022-08-10T05:09:32.115Z,1.80
2022-08-10T05:12:38.828Z,2.00
2022-08-10T05:15:44.248Z,1.70
2022-08-10T05:18:48.236Z,2.05
2022-08-10T05:22:04.167Z,2.05
2022-08-10T05:25:11.825Z,2.42
2022-08-10T05:28:14.569Z,2.50
2022-08-10T05:31:23.972Z,2.20
2022-08-10T05:34:28.654Z,2.58
2022-08-10T05:38:11.592Z,2.47
2022-08-10T05:40:58.144Z,2.78
2022-08-10T05:44:01.100Z,2.17
2022-08-10T05:47:04.198Z,2.30
2022-08-10T05:50:08.137Z,1.83
2022-08-10T05:54:01.478Z,2.25
2022-08-10T05:56:56.982Z,2.03
2022-08-10T06:00:34.427Z,2.28
2022-08-10T06:03:28.750Z,1.60
2022-08-10T06:06:35.087Z,1.98
2022-08-10T06:09:59.777Z,2.85
2022-08-10T06:13:30.658Z,2.17
2022-08-10T06:16:38.882Z,2.13
2022-08-10T06:19:43.117Z,2.10
2022-08-10T06:22:45.874Z,2.03
2022-08-10T06:26:11.422Z,2.10
2022-08-10T06:29:15.875Z,1.80
2022-08-10T06:32:19.520Z,1.95
2022-08-10T06:35:24.101Z,1.52
2022-08-10T06:38:29.702Z,1.55
2022-08-10T06:42:01.360Z,2.28
2022-08-10T06:45:05.601Z,1.40
2022-08-10T06:48:14.989Z,1.48
2022-08-10T06:51:23.779Z,1.90
2022-08-10T06:54:29.887Z,1.67
2022-08-10T06:57:35.597Z,1.52
2022-08-10T07:00:44.016Z,1.67
2022-08-10T07:03:54.913Z,1.38
2022-08-10T07:07:00.189Z,1.70
2022-08-10T07:10:02.958Z,1.63
2022-08-10T07:13:06.554Z,1.67
2022-08-10T07:16:13.281Z,1.55
2022-08-10T07:19:18.142Z,1.52
2022-08-10T07:23:01.734Z,1.33
2022-08-10T07:25:49.175Z,1.40
2022-08-10T07:28:53.714Z,1.48
2022-08-10T07:31:59.819Z,1.10
2022-08-10T07:35:03.750Z,1.35
2022-08-10T07:38:11.429Z,1.92
2022-08-10T07:41:18.002Z,1.40
2022-08-10T07:44:23.239Z,1.27
2022-08-10T07:47:53.624Z,1.30
2022-08-10T07:50:59.299Z,1.30
2022-08-10T07:54:05.912Z,1.52
2022-08-10T07:57:16.915Z,1.80
2022-08-10T08:00:34.893Z,1.50
2022-08-10T08:03:41.589Z,1.48
2022-08-10T08:06:45.493Z,1.60
2022-08-10T08:09:57.879Z,1.33
2022-08-10T08:13:04.421Z,1.20
2022-08-10T08:16:15.637Z,1.45
2022-08-10T08:19:28.176Z,1.48
2022-08-10T08:24:07.236Z,1.20
2022-08-10T08:26:03.215Z,1.40
2022-08-10T08:29:06.410Z,1.30
2022-08-10T08:32:11.376Z,1.00
2022-08-10T08:35:19.346Z,1.30
2022-08-10T08:38:32.850Z,1.08
2022-08-10T08:42:02.454Z,1.30
2022-08-10T08:45:15.111Z,1.13
2022-08-10T08:48:36.673Z,1.20
2022-08-10T08:52:09.849Z,1.83
2022-08-10T08:56:03.117Z,1.00
2022-08-10T08:59:07.867Z,1.30
2022-08-10T09:02:24.813Z,1.10
2022-08-10T09:05:58.930Z,1.33
2022-08-10T09:09:33.447Z,1.10
2022-08-10T09:12:48.811Z,0.85
2022-08-10T09:16:00.497Z,1.23
2022-08-10T09:19:09.339Z,1.17
2022-08-10T09:22:19.478Z,1.27
2022-08-10T09:25:27.213Z,1.20
2022-08-10T09:28:37.175Z,1.10
2022-08-10T09:31:55.521Z,1.10
2022-08-10T09:36:27.003Z,1.02
2022-08-10T09:38:50.003Z,1.25
2022-08-10T09:42:05.575Z,1.10
2022-08-10T09:45:17.610Z,1.05
2022-08-10T09:48:28.042Z,1.13
2022-08-10T09:51:45.878Z,0.88
2022-08-10T09:55:05.153Z,1.25
2022-08-10T09:58:26.010Z,1.30
2022-08-10T10:02:02.868Z,1.00
2022-08-10T10:05:08.952Z,0.95
2022-08-10T10:08:20.322Z,1.17
2022-08-10T10:11:30.042Z,1.42
2022-08-10T10:15:01.431Z,0.90
2022-08-10T10:18:30.705Z,1.15
2022-08-10T10:21:55.427Z,0.90
2022-08-10T10:25:18.194Z,1.13
2022-08-10T10:29:11.513Z,0.90
2022-08-10T10:32:09.433Z,1.00
2022-08-10T10:35:20.777Z,1.10
2022-08-10T10:38:26.943Z,1.00
2022-08-10T10:41:56.135Z,1.10
2022-08-10T10:45:14.636Z,1.35
2022-08-10T10:48:29.272Z,1.17
2022-08-10T10:51:35.678Z,1.38
2022-08-10T10:54:45.895Z,1.20
2022-08-10T10:58:01.093Z,1.08
2022-08-10T11:01:12.231Z,1.00
2022-08-10T11:04:25.378Z,1.00
2022-08-10T11:07:35.648Z,1.13
2022-08-10T11:10:47.232Z,1.33
2022-08-10T11:14:26.143Z,1.10
2022-08-10T11:17:31.062Z,1.15
2022-08-10T11:20:45.030Z,1.17
2022-08-10T11:24:48.124Z,0.82
2022-08-10T11:27:26.270Z,1.05
2022-08-10T11:30:37.710Z,0.90
2022-08-10T11:34:11.326Z,1.10
2022-08-10T11:37:19.558Z,1.20
2022-08-10T11:40:29.166Z,1.15
2022-08-10T11:43:39.130Z,1.10
2022-08-10T11:46:47.300Z,1.10
2022-08-10T11:49:54.724Z,1.10
2022-08-10T11:53:11.050Z,1.02
2022-08-10T11:56:23.015Z,0.73
2022-08-10T11:59:46.070Z,1.10
2022-08-10T12:02:53.586Z,0.88
2022-08-10T12:05:56.972Z,1.52
2022-08-10T12:10:11.389Z,1.20
2022-08-10T12:12:30.341Z,0.90
2022-08-10T12:15:39.905Z,0.98
2022-08-10T12:18:48.008Z,0.90
2022-08-10T12:21:57.854Z,1.30
2022-08-10T12:25:08.489Z,0.98
2022-08-10T12:28:15.695Z,1.27
2022-08-10T12:31:20.155Z,0.95
2022-08-10T12:34:31.152Z,1.10
2022-08-10T12:37:40.008Z,1.10
2022-08-10T12:40:48.859Z,1.13
2022-08-10T12:44:07.561Z,0.82
2022-08-10T12:47:21.129Z,0.88
2022-08-10T12:50:33.247Z,1.00
2022-08-10T12:53:51.118Z,1.20
2022-08-10T12:57:02.958Z,1.00
2022-08-10T13:00:10.525Z,1.27
2022-08-10T13:04:21.150Z,1.10
2022-08-10T13:06:49.672Z,1.50
2022-08-10T13:09:56.375Z,1.60
2022-08-10T13:13:02.180Z,0.90
2022-08-10T13:16:06.569Z,1.10
2022-08-10T13:19:11.780Z,1.17
2022-08-10T13:22:17.431Z,1.52
2022-08-10T13:25:29.235Z,1.10
2022-08-10T13:28:43.289Z,1.00
2022-08-10T13:32:09.014Z,1.08
2022-08-10T13:35:17.517Z,1.10
2022-08-10T13:38:23.128Z,1.00
2022-08-10T13:41:29.563Z,0.98
2022-08-10T13:44:38.233Z,1.10
2022-08-10T13:47:49.403Z,1.00
2022-08-10T13:50:58.924Z,1.55
2022-08-10T13:54:03.690Z,1.20
2022-08-10T13:57:07.839Z,1.00
2022-08-10T14:00:36.500Z,0.80
2022-08-10T14:03:40.749Z,1.77
2022-08-10T14:06:51.978Z,0.98
2022-08-10T14:10:04.925Z,0.88
2022-08-10T14:13:09.749Z,1.13
2022-08-10T14:16:15.355Z,1.10
2022-08-10T14:19:20.487Z,0.90
2022-08-10T14:22:34.083Z,1.10
2022-08-10T14:25:48.711Z,0.90
2022-08-10T14:28:55.977Z,1.00
2022-08-10T14:32:02.601Z,0.90
2022-08-10T14:36:18.836Z,1.00
2022-08-10T14:38:35.102Z,1.02
2022-08-10T14:42:01.380Z,1.10
2022-08-10T14:45:08.294Z,1.05
2022-08-10T14:48:16.874Z,1.00
2022-08-10T14:51:21.826Z,1.00
2022-08-10T14:54:29.625Z,1.20
2022-08-10T14:58:18.845Z,0.95
2022-08-10T15:00:59.234Z,0.90
2022-08-10T15:04:07.447Z,1.13
2022-08-10T15:07:20.768Z,1.25
2022-08-10T15:10:25.128Z,1.30
2022-08-10T15:13:34.486Z,1.20
2022-08-10T15:16:38.513Z,0.90
2022-08-10T15:20:02.380Z,1.13
2022-08-10T15:23:31.113Z,1.13
2022-08-10T15:26:35.250Z,1.10
2022-08-10T15:29:56.537Z,0.80
2022-08-10T15:33:59.373Z,0.93
2022-08-10T15:37:39.628Z,1.10
2022-08-10T15:40:52.027Z,0.98
2022-08-10T15:43:55.945Z,1.00
2022-08-10T15:47:02.575Z,1.42
2022-08-10T15:50:08.478Z,0.98
2022-08-10T15:53:17.105Z,1.02
2022-08-10T15:56:28.104Z,1.25
2022-08-10T15:59:34.310Z,1.20
2022-08-10T16:02:50.410Z,0.95
2022-08-10T16:06:02.183Z,1.02
2022-08-10T16:10:24.277Z,1.00
2022-08-10T16:12:42.611Z,1.00
2022-08-10T16:15:53.315Z,1.05
2022-08-10T16:18:56.349Z,1.10
2022-08-10T16:22:02.623Z,1.17
2022-08-10T16:25:47.802Z,1.10
2022-08-10T16:28:58.852Z,1.23
2022-08-10T16:32:04.321Z,0.90
2022-08-10T16:35:10.487Z,1.20
2022-08-10T16:38:15.195Z,1.00
2022-08-10T16:42:03.331Z,0.88
2022-08-10T16:45:00.734Z,1.05
2022-08-10T16:48:12.659Z,0.90
2022-08-10T16:51:26.883Z,1.10
2022-08-10T16:54:45.770Z,0.90
2022-08-10T16:58:15.077Z,1.38
2022-08-10T17:01:51.509Z,1.20
2022-08-10T17:06:03.342Z,0.98
2022-08-10T17:08:55.286Z,1.00
2022-08-10T17:12:15.098Z,1.05
2022-08-10T17:15:45.403Z,1.38
2022-08-10T17:19:03.869Z,1.10
2022-08-10T17:22:21.630Z,1.10
2022-08-10T17:25:48.826Z,1.10
2022-08-10T17:29:02.727Z,1.02
2022-08-10T17:32:21.326Z,1.20
2022-08-10T17:35:30.783Z,0.95
2022-08-10T17:38:38.903Z,1.30
2022-08-10T17:41:49.355Z,1.00
2022-08-10T17:44:58.076Z,0.90
2022-08-10T17:48:09.838Z,1.27
2022-08-10T17:51:21.891Z,0.90
2022-08-10T17:54:39.460Z,1.30
2022-08-10T17:58:01.946Z,1.23
2022-08-10T18:01:41.240Z,1.30
2022-08-10T18:04:56.925Z,1.10
2022-08-10T18:08:36.833Z,1.10
2022-08-10T18:12:18.126Z,0.90
2022-08-10T18:15:27.587Z,1.17
2022-08-10T18:18:46.932Z,1.02
2022-08-10T18:22:00.106Z,1.50
2022-08-10T18:25:35.138Z,1.45
2022-08-10T18:29:03.598Z,1.30
2022-08-10T18:32:20.015Z,1.33
2022-08-10T18:35:40.909Z,1.00
2022-08-10T18:38:56.591Z,1.27
2022-08-10T18:42:15.724Z,1.33
2022-08-10T18:45:39.033Z,1.23
2022-08-10T18:49:04.308Z,1.30
2022-08-10T18:52:29.903Z,1.20
2022-08-10T18:56:09.374Z,1.20
2022-08-10T19:00:07.888Z,1.17
2022-08-10T19:03:54.343Z,1.20
2022-08-10T19:07:33.673Z,1.00
2022-08-10T19:14:47.424Z,1.23
2022-08-10T19:18:26.655Z,1.30
2022-08-10T19:22:04.111Z,1.65
2022-08-10T19:26:40.981Z,1.42
2022-08-10T19:29:13.899Z,1.55
2022-08-10T19:32:52.840Z,1.33
2022-08-10T19:36:13.174Z,1.20
2022-08-10T19:39:28.642Z,1.50
2022-08-10T19:42:40.758Z,1.45
2022-08-10T19:46:03.206Z,1.20
2022-08-10T19:49:20.525Z,1.35
2022-08-10T19:52:35.455Z,1.35
2022-08-10T19:55:47.089Z,1.50
2022-08-10T19:59:17.436Z,1.23
2022-08-10T20:03:04.257Z,1.33
2022-08-10T20:06:24.585Z,1.40
2022-08-10T20:09:36.686Z,1.65
2022-08-10T20:12:52.741Z,1.60
2022-08-10T20:16:07.716Z,1.38
2022-08-10T20:19:27.222Z,1.25
2022-08-10T20:22:56.957Z,1.50
2022-08-10T20:26:07.085Z,1.38
2022-08-10T20:29:57.449Z,1.02
2022-08-10T20:32:53.157Z,1.70
2022-08-10T20:36:15.588Z,1.40
2022-08-10T20:39:31.450Z,1.48
2022-08-10T20:42:54.288Z,1.63
2022-08-10T20:46:11.198Z,1.55
2022-08-10T20:49:37.554Z,1.38
2022-08-10T20:52:54.363Z,1.42
2022-08-10T20:56:20.681Z,1.52
2022-08-10T21:00:02.507Z,1.33
2022-08-10T21:03:58.557Z,1.30
2022-08-10T21:07:44.109Z,1.60
2022-08-10T21:11:11.915Z,1.40
2022-08-10T21:14:33.093Z,1.33
2022-08-10T21:18:09.633Z,1.67
2022-08-10T21:25:15.488Z,1.83
2022-08-10T21:28:59.768Z,1.48
2022-08-10T21:32:32.987Z,1.55
2022-08-10T21:35:57.171Z,1.73
2022-08-10T21:39:13.981Z,1.48
2022-08-10T21:42:49.034Z,1.45
2022-08-10T21:46:38.365Z,1.33
2022-08-10T21:54:19.177Z,1.33
2022-08-10T22:01:54.844Z,1.65
2022-08-10T22:09:18.514Z,1.52
2022-08-10T22:13:01.584Z,1.60
2022-08-10T22:16:29.725Z,1.50
2022-08-10T22:19:58.952Z,1.40
2022-08-10T22:23:43.955Z,1.40
2022-08-10T22:27:47.333Z,1.70
2022-08-10T22:31:37.075Z,1.67
2022-08-10T22:35:22.383Z,1.45
2022-08-10T22:39:03.860Z,1.55
2022-08-10T22:42:59.486Z,1.77
2022-08-10T22:46:28.500Z,1.70
2022-08-10T22:49:34.778Z,1.65
2022-08-10T22:53:08.172Z,1.60
2022-08-10T22:57:06.289Z,1.50
2022-08-10T23:00:39.914Z,1.20
2022-08-10T23:04:35.767Z,1.70
2022-08-10T23:07:52.224Z,1.30
2022-08-10T23:11:08.431Z,1.58
2022-08-10T23:14:21.493Z,1.60
2022-08-10T23:18:00.849Z,1.42
2022-08-10T23:21:16.512Z,1.63
2022-08-10T23:24:30.774Z,1.65
2022-08-10T23:27:45.914Z,1.75
2022-08-10T23:30:59.456Z,1.75
2022-08-10T23:34:11.165Z,1.52
2022-08-10T23:37:20.624Z,1.85
2022-08-10T23:40:53.101Z,1.38
2022-08-10T23:44:12.201Z,1.52
2022-08-10T23:47:30.520Z,1.77
2022-08-10T23:50:36.437Z,1.50
2022-08-10T23:54:03.799Z,1.17
2022-08-10T23:57:10.454Z,1.65
